sensor_id;sensor_type;location;lat;lon;timestamp;pressure;altitude;pressure_sealevel;temperature;humidity
72395;BME280;60384;48.152;11.614;2023-02-28T00:01:41;96146.72;;;-1.05;76.15
72395;BME280;60384;48.152;11.614;2023-02-28T00:04:44;96142.50;;;-1.06;76.20
72395;BME280;60384;48.152;11.614;2023-02-28T00:07:53;96144.56;;;-1.08;76.66
72395;BME280;60384;48.152;11.614;2023-02-28T00:10:55;96138.53;;;-1.09;76.47
72395;BME280;60384;48.152;11.614;2023-02-28T00:13:58;96138.53;;;-1.09;76.32
72395;BME280;60384;48.152;11.614;2023-02-28T00:17:00;96138.75;;;-1.10;76.33
72395;BME280;60384;48.152;11.614;2023-02-28T00:20:05;96128.50;;;-1.12;76.21
72395;BME280;60384;48.152;11.614;2023-02-28T00:23:08;96129.28;;;-1.11;76.14
72395;BME280;60384;48.152;11.614;2023-02-28T00:26:10;96139.19;;;-1.13;76.28
72395;BME280;60384;48.152;11.614;2023-02-28T00:29:15;96127.38;;;-1.16;76.20
72395;BME280;60384;48.152;11.614;2023-02-28T00:32:18;96133.41;;;-1.15;76.26
72395;BME280;60384;48.152;11.614;2023-02-28T00:35:21;96118.94;;;-1.18;76.46
72395;BME280;60384;48.152;11.614;2023-02-28T00:38:23;96123.38;;;-1.18;76.15
72395;BME280;60384;48.152;11.614;2023-02-28T00:41:25;96123.63;;;-1.20;76.00
72395;BME280;60384;48.152;11.614;2023-02-28T00:44:27;96124.66;;;-1.21;76.20
72395;BME280;60384;48.152;11.614;2023-02-28T00:47:29;96117.22;;;-1.24;76.33
72395;BME280;60384;48.152;11.614;2023-02-28T00:50:33;96116.44;;;-1.25;75.96
72395;BME280;60384;48.152;11.614;2023-02-28T00:53:35;96122.72;;;-1.26;76.54
72395;BME280;60384;48.152;11.614;2023-02-28T00:56:36;96126.38;;;-1.27;76.60
72395;BME280;60384;48.152;11.614;2023-02-28T00:59:38;96124.78;;;-1.28;75.73
72395;BME280;60384;48.152;11.614;2023-02-28T01:02:40;96120.56;;;-1.29;76.00
72395;BME280;60384;48.152;11.614;2023-02-28T01:05:44;96125.22;;;-1.31;75.58
72395;BME280;60384;48.152;11.614;2023-02-28T01:08:46;96126.25;;;-1.32;76.41
72395;BME280;60384;48.152;11.614;2023-02-28T01:11:48;96122.03;;;-1.33;76.05
72395;BME280;60384;48.152;11.614;2023-02-28T01:14:50;96116.22;;;-1.35;76.11
72395;BME280;60384;48.152;11.614;2023-02-28T01:17:51;96121.69;;;-1.36;76.49
72395;BME280;60384;48.152;11.614;2023-02-28T01:20:55;96113.28;;;-1.38;75.66
72395;BME280;60384;48.152;11.614;2023-02-28T01:23:57;96110.88;;;-1.40;76.01
72395;BME280;60384;48.152;11.614;2023-02-28T01:26:59;96105.66;;;-1.40;76.20
72395;BME280;60384;48.152;11.614;2023-02-28T01:30:01;96111.69;;;-1.39;75.90
72395;BME280;60384;48.152;11.614;2023-02-28T01:33:03;96109.28;;;-1.41;75.67
72395;BME280;60384;48.152;11.614;2023-02-28T01:36:09;96102.44;;;-1.42;75.83
72395;BME280;60384;48.152;11.614;2023-02-28T01:39:11;96108.97;;;-1.44;75.94
72395;BME280;60384;48.152;11.614;2023-02-28T01:42:13;96099.72;;;-1.47;76.07
72395;BME280;60384;48.152;11.614;2023-02-28T01:45:22;96098.13;;;-1.48;75.67
72395;BME280;60384;48.152;11.614;2023-02-28T01:48:26;96093.69;;;-1.47;76.28
72395;BME280;60384;48.152;11.614;2023-02-28T01:51:34;96095.50;;;-1.48;75.79
72395;BME280;60384;48.152;11.614;2023-02-28T01:54:38;96086.88;;;-1.48;76.09
72395;BME280;60384;48.152;11.614;2023-02-28T01:57:43;96091.53;;;-1.50;75.90
72395;BME280;60384;48.152;11.614;2023-02-28T02:00:49;96090.97;;;-1.52;75.91
72395;BME280;60384;48.152;11.614;2023-02-28T02:03:53;96085.41;;;-1.56;76.08
72395;BME280;60384;48.152;11.614;2023-02-28T02:06:58;96083.22;;;-1.59;75.49
72395;BME280;60384;48.152;11.614;2023-02-28T02:10:02;96091.34;;;-1.60;76.04
72395;BME280;60384;48.152;11.614;2023-02-28T02:13:17;96089.16;;;-1.63;76.08
72395;BME280;60384;48.152;11.614;2023-02-28T02:16:35;96087.22;;;-1.68;75.93
72395;BME280;60384;48.152;11.614;2023-02-28T02:23:59;96087.34;;;-1.75;75.99
72395;BME280;60384;48.152;11.614;2023-02-28T02:27:20;96082.31;;;-1.76;75.90
72395;BME280;60384;48.152;11.614;2023-02-28T02:31:06;96083.59;;;-1.79;76.29
72395;BME280;60384;48.152;11.614;2023-02-28T02:34:37;96083.25;;;-1.82;75.54
72395;BME280;60384;48.152;11.614;2023-02-28T02:37:44;96082.13;;;-1.86;75.75
72395;BME280;60384;48.152;11.614;2023-02-28T02:41:00;96080.97;;;-1.90;75.79
72395;BME280;60384;48.152;11.614;2023-02-28T02:44:13;96075.97;;;-1.92;75.98
72395;BME280;60384;48.152;11.614;2023-02-28T02:47:22;96072.00;;;-1.94;76.13
72395;BME280;60384;48.152;11.614;2023-02-28T02:50:31;96076.44;;;-1.95;76.18
72395;BME280;60384;48.152;11.614;2023-02-28T02:53:38;96065.97;;;-1.95;75.52
72395;BME280;60384;48.152;11.614;2023-02-28T02:56:45;96065.97;;;-1.95;76.13
72395;BME280;60384;48.152;11.614;2023-02-28T02:59:48;96065.97;;;-1.95;75.58
72395;BME280;60384;48.152;11.614;2023-02-28T03:02:54;96067.56;;;-1.94;75.90
72395;BME280;60384;48.152;11.614;2023-02-28T03:06:00;96067.78;;;-1.95;76.25
72395;BME280;60384;48.152;11.614;2023-02-28T03:09:03;96068.00;;;-1.97;76.04
72395;BME280;60384;48.152;11.614;2023-02-28T03:12:07;96060.16;;;-1.97;75.82
72395;BME280;60384;48.152;11.614;2023-02-28T03:15:19;96059.34;;;-1.97;75.74
72395;BME280;60384;48.152;11.614;2023-02-28T03:18:26;96066.66;;;-1.99;75.49
72395;BME280;60384;48.152;11.614;2023-02-28T03:21:36;96071.09;;;-2.00;75.58
72395;BME280;60384;48.152;11.614;2023-02-28T03:24:45;96068.47;;;-2.00;75.71
72395;BME280;60384;48.152;11.614;2023-02-28T03:28:00;96074.50;;;-1.99;76.02
72395;BME280;60384;48.152;11.614;2023-02-28T03:31:09;96075.75;;;-2.02;75.78
72395;BME280;60384;48.152;11.614;2023-02-28T03:34:16;96068.91;;;-2.03;75.71
72395;BME280;60384;48.152;11.614;2023-02-28T03:37:23;96067.56;;;-2.05;75.92
72395;BME280;60384;48.152;11.614;2023-02-28T03:40:31;96066.75;;;-2.06;75.72
72395;BME280;60384;48.152;11.614;2023-02-28T03:43:35;96071.41;;;-2.08;75.80
72395;BME280;60384;48.152;11.614;2023-02-28T03:46:44;96080.06;;;-2.08;75.22
72395;BME280;60384;48.152;11.614;2023-02-28T03:49:51;96074.72;;;-2.13;75.79
72395;BME280;60384;48.152;11.614;2023-02-28T03:52:58;96078.34;;;-2.14;75.42
72395;BME280;60384;48.152;11.614;2023-02-28T03:56:09;96075.16;;;-2.16;75.60
72395;BME280;60384;48.152;11.614;2023-02-28T03:59:18;96081.19;;;-2.15;75.66
72395;BME280;60384;48.152;11.614;2023-02-28T04:02:20;96084.81;;;-2.16;75.59
72395;BME280;60384;48.152;11.614;2023-02-28T04:05:22;96086.66;;;-2.17;75.44
72395;BME280;60384;48.152;11.614;2023-02-28T04:08:25;96085.63;;;-2.16;75.87
72395;BME280;60384;48.152;11.614;2023-02-28T04:11:32;96094.28;;;-2.15;75.40
72395;BME280;60384;48.152;11.614;2023-02-28T04:14:35;96097.13;;;-2.17;75.68
72395;BME280;60384;48.152;11.614;2023-02-28T04:17:37;96103.94;;;-2.16;75.58
72395;BME280;60384;48.152;11.614;2023-02-28T04:20:38;96101.31;;;-2.16;75.81
72395;BME280;60384;48.152;11.614;2023-02-28T04:23:42;96110.34;;;-2.12;75.83
72395;BME280;60384;48.152;11.614;2023-02-28T04:26:45;96110.09;;;-2.10;75.81
72395;BME280;60384;48.152;11.614;2023-02-28T04:29:47;96108.06;;;-2.08;75.83
72395;BME280;60384;48.152;11.614;2023-02-28T04:32:49;96118.06;;;-2.05;75.76
72395;BME280;60384;48.152;11.614;2023-02-28T04:35:58;96112.16;;;-2.00;75.47
72395;BME280;60384;48.152;11.614;2023-02-28T04:39:01;96111.47;;;-1.96;76.18
72395;BME280;60384;48.152;11.614;2023-02-28T04:42:04;96117.03;;;-1.92;75.80
72395;BME280;60384;48.152;11.614;2023-02-28T04:45:08;96110.34;;;-1.88;75.26
72395;BME280;60384;48.152;11.614;2023-02-28T04:48:11;96119.34;;;-1.84;75.63
72395;BME280;60384;48.152;11.614;2023-02-28T04:51:14;96113.41;;;-1.80;76.11
72395;BME280;60384;48.152;11.614;2023-02-28T04:54:17;96110.38;;;-1.77;75.83
72395;BME280;60384;48.152;11.614;2023-02-28T04:57:19;96111.50;;;-1.73;75.80
72395;BME280;60384;48.152;11.614;2023-02-28T05:00:21;96115.47;;;-1.70;76.04
72395;BME280;60384;48.152;11.614;2023-02-28T05:03:23;96119.22;;;-1.66;75.45
72395;BME280;60384;48.152;11.614;2023-02-28T05:06:27;96124.22;;;-1.64;75.20
72395;BME280;60384;48.152;11.614;2023-02-28T05:09:31;96116.94;;;-1.62;75.28
72395;BME280;60384;48.152;11.614;2023-02-28T05:12:34;96123.78;;;-1.61;75.30
72395;BME280;60384;48.152;11.614;2023-02-28T05:15:36;96131.75;;;-1.56;74.98
72395;BME280;60384;48.152;11.614;2023-02-28T05:18:38;96125.25;;;-1.54;75.74
72395;BME280;60384;48.152;11.614;2023-02-28T05:21:41;96130.03;;;-1.51;75.21
72395;BME280;60384;48.152;11.614;2023-02-28T05:24:50;96131.63;;;-1.50;75.65
72395;BME280;60384;48.152;11.614;2023-02-28T05:27:52;96126.19;;;-1.48;75.83
72395;BME280;60384;48.152;11.614;2023-02-28T05:30:54;96137.19;;;-1.46;75.61
72395;BME280;60384;48.152;11.614;2023-02-28T05:33:56;96133.56;;;-1.45;75.64
72395;BME280;60384;48.152;11.614;2023-02-28T05:36:58;96131.50;;;-1.43;74.94
72395;BME280;60384;48.152;11.614;2023-02-28T05:40:01;96129.44;;;-1.41;75.54
72395;BME280;60384;48.152;11.614;2023-02-28T05:43:09;96134.69;;;-1.41;75.24
72395;BME280;60384;48.152;11.614;2023-02-28T05:46:12;96135.47;;;-1.41;75.49
72395;BME280;60384;48.152;11.614;2023-02-28T05:49:14;96127.41;;;-1.39;75.53
72395;BME280;60384;48.152;11.614;2023-02-28T05:52:16;96130.03;;;-1.39;75.38
72395;BME280;60384;48.152;11.614;2023-02-28T05:55:20;96132.66;;;-1.39;75.02
72395;BME280;60384;48.152;11.614;2023-02-28T05:58:22;96130.81;;;-1.39;75.69
72395;BME280;60384;48.152;11.614;2023-02-28T06:01:30;96139.81;;;-1.35;74.48
72395;BME280;60384;48.152;11.614;2023-02-28T06:04:33;96144.03;;;-1.34;74.77
72395;BME280;60384;48.152;11.614;2023-02-28T06:07:34;96144.34;;;-1.30;75.46
72395;BME280;60384;48.152;11.614;2023-02-28T06:10:37;96145.72;;;-1.28;75.61
72395;BME280;60384;48.152;11.614;2023-02-28T06:13:39;96148.94;;;-1.26;74.88
72395;BME280;60384;48.152;11.614;2023-02-28T06:16:41;96150.84;;;-1.21;75.75
72395;BME280;60384;48.152;11.614;2023-02-28T06:19:43;96152.19;;;-1.18;74.92
72395;BME280;60384;48.152;11.614;2023-02-28T06:22:45;96159.03;;;-1.17;75.16
72395;BME280;60384;48.152;11.614;2023-02-28T06:25:48;96164.84;;;-1.15;75.38
72395;BME280;60384;48.152;11.614;2023-02-28T06:28:50;96165.19;;;-1.12;74.57
72395;BME280;60384;48.152;11.614;2023-02-28T06:31:52;96165.53;;;-1.08;74.93
72395;BME280;60384;48.152;11.614;2023-02-28T06:34:53;96167.91;;;-1.07;75.00
72395;BME280;60384;48.152;11.614;2023-02-28T06:37:57;96157.41;;;-1.07;75.58
72395;BME280;60384;48.152;11.614;2023-02-28T06:41:01;96169.28;;;-1.04;75.06
72395;BME280;60384;48.152;11.614;2023-02-28T06:44:04;96172.69;;;-1.04;75.35
72395;BME280;60384;48.152;11.614;2023-02-28T06:47:06;96178.75;;;-1.03;74.90
72395;BME280;60384;48.152;11.614;2023-02-28T06:50:10;96186.59;;;-1.03;75.51
72395;BME280;60384;48.152;11.614;2023-02-28T06:53:13;96178.97;;;-1.05;74.68
72395;BME280;60384;48.152;11.614;2023-02-28T06:56:16;96185.56;;;-1.02;75.04
72395;BME280;60384;48.152;11.614;2023-02-28T06:59:18;96189.09;;;-0.97;74.89
72395;BME280;60384;48.152;11.614;2023-02-28T07:02:20;96186.59;;;-0.92;74.98
72395;BME280;60384;48.152;11.614;2023-02-28T07:05:22;96198.66;;;-0.91;75.04
72395;BME280;60384;48.152;11.614;2023-02-28T07:08:24;96193.19;;;-0.89;74.54
72395;BME280;60384;48.152;11.614;2023-02-28T07:11:28;96204.25;;;-0.87;74.65
72395;BME280;60384;48.152;11.614;2023-02-28T07:14:30;96197.97;;;-0.86;74.94
72395;BME280;60384;48.152;11.614;2023-02-28T07:17:32;96205.16;;;-0.81;75.41
72395;BME280;60384;48.152;11.614;2023-02-28T07:20:34;96203.88;;;-0.79;74.41
72395;BME280;60384;48.152;11.614;2023-02-28T07:23:36;96199.19;;;-0.77;74.00
72395;BME280;60384;48.152;11.614;2023-02-28T07:26:40;96201.03;;;-0.77;74.06
72395;BME280;60384;48.152;11.614;2023-02-28T07:29:42;96206.59;;;-0.74;74.34
72395;BME280;60384;48.152;11.614;2023-02-28T07:32:44;96199.28;;;-0.72;74.81
72395;BME280;60384;48.152;11.614;2023-02-28T07:35:46;96204.88;;;-0.68;74.30
72395;BME280;60384;48.152;11.614;2023-02-28T07:38:48;96209.44;;;-0.64;74.21
72395;BME280;60384;48.152;11.614;2023-02-28T07:41:52;96211.03;;;-0.63;74.52
72395;BME280;60384;48.152;11.614;2023-02-28T07:44:59;96205.78;;;-0.63;74.10
72395;BME280;60384;48.152;11.614;2023-02-28T07:48:01;96202.91;;;-0.61;74.38
72395;BME280;60384;48.152;11.614;2023-02-28T07:51:04;96206.13;;;-0.59;74.86
72395;BME280;60384;48.152;11.614;2023-02-28T07:54:06;96206.13;;;-0.59;74.52
72395;BME280;60384;48.152;11.614;2023-02-28T07:57:09;96193.56;;;-0.57;74.52
72395;BME280;60384;48.152;11.614;2023-02-28T08:00:12;96204.38;;;-0.54;74.82
72395;BME280;60384;48.152;11.614;2023-02-28T08:03:18;96205.72;;;-0.51;74.66
72395;BME280;60384;48.152;11.614;2023-02-28T08:06:22;96208.13;;;-0.50;74.22
72395;BME280;60384;48.152;11.614;2023-02-28T08:09:24;96205.06;;;-0.47;74.10
72395;BME280;60384;48.152;11.614;2023-02-28T08:12:27;96214.25;;;-0.44;74.51
72395;BME280;60384;48.152;11.614;2023-02-28T08:15:29;96219.50;;;-0.44;74.56
72395;BME280;60384;48.152;11.614;2023-02-28T08:18:32;96221.13;;;-0.43;74.51
72395;BME280;60384;48.152;11.614;2023-02-28T08:21:34;96219.88;;;-0.40;74.86
72395;BME280;60384;48.152;11.614;2023-02-28T08:24:35;96224.06;;;-0.39;74.17
72395;BME280;60384;48.152;11.614;2023-02-28T08:27:39;96228.84;;;-0.36;74.16
72395;BME280;60384;48.152;11.614;2023-02-28T08:30:40;96232.06;;;-0.34;74.57
72395;BME280;60384;48.152;11.614;2023-02-28T08:33:43;96224.72;;;-0.32;74.06
72395;BME280;60384;48.152;11.614;2023-02-28T08:36:45;96225.28;;;-0.30;74.05
72395;BME280;60384;48.152;11.614;2023-02-28T08:39:47;96235.78;;;-0.30;74.43
72395;BME280;60384;48.152;11.614;2023-02-28T08:42:50;96230.88;;;-0.27;74.36
72395;BME280;60384;48.152;11.614;2023-02-28T08:45:52;96238.38;;;-0.19;74.42
72395;BME280;60384;48.152;11.614;2023-02-28T08:48:55;96248.75;;;-0.12;74.15
72395;BME280;60384;48.152;11.614;2023-02-28T08:52:00;96253.28;;;-0.08;74.65
72395;BME280;60384;48.152;11.614;2023-02-28T08:55:02;96250.19;;;-0.05;73.57
72395;BME280;60384;48.152;11.614;2023-02-28T08:58:05;96253.47;;;0.03;73.49
72395;BME280;60384;48.152;11.614;2023-02-28T09:01:08;96247.03;;;0.10;73.53
72395;BME280;60384;48.152;11.614;2023-02-28T09:04:11;96249.53;;;0.17;73.56
72395;BME280;60384;48.152;11.614;2023-02-28T09:07:13;96253.03;;;0.22;74.00
72395;BME280;60384;48.152;11.614;2023-02-28T09:10:15;96254.94;;;0.27;74.08
72395;BME280;60384;48.152;11.614;2023-02-28T09:13:18;96259.47;;;0.31;73.67
72395;BME280;60384;48.152;11.614;2023-02-28T09:16:20;96255.59;;;0.34;73.78
72395;BME280;60384;48.152;11.614;2023-02-28T09:19:22;96257.75;;;0.37;73.48
72395;BME280;60384;48.152;11.614;2023-02-28T09:22:24;96261.47;;;0.41;73.78
72395;BME280;60384;48.152;11.614;2023-02-28T09:25:25;96266.34;;;0.49;73.75
72395;BME280;60384;48.152;11.614;2023-02-28T09:28:29;96267.47;;;0.53;73.11
72395;BME280;60384;48.152;11.614;2023-02-28T09:31:31;96274.88;;;0.56;73.78
72395;BME280;60384;48.152;11.614;2023-02-28T09:34:33;96277.81;;;0.60;73.75
72395;BME280;60384;48.152;11.614;2023-02-28T09:37:34;96288.66;;;0.63;73.54
72395;BME280;60384;48.152;11.614;2023-02-28T09:40:39;96284.75;;;0.66;73.00
72395;BME280;60384;48.152;11.614;2023-02-28T09:43:51;96287.97;;;0.68;73.40
72395;BME280;60384;48.152;11.614;2023-02-28T09:46:56;96287.69;;;0.69;73.38
72395;BME280;60384;48.152;11.614;2023-02-28T09:50:19;96291.19;;;0.75;73.23
72395;BME280;60384;48.152;11.614;2023-02-28T09:53:27;96294.72;;;0.80;73.08
72395;BME280;60384;48.152;11.614;2023-02-28T09:56:37;96296.47;;;0.92;73.41
72395;BME280;60384;48.152;11.614;2023-02-28T10:03:26;96299.78;;;1.20;72.61
72395;BME280;60384;48.152;11.614;2023-02-28T10:06:35;96298.03;;;1.26;72.43
72395;BME280;60384;48.152;11.614;2023-02-28T10:09:40;96285.16;;;1.46;72.16
72395;BME280;60384;48.152;11.614;2023-02-28T10:12:44;96282.41;;;1.80;71.91
72395;BME280;60384;48.152;11.614;2023-02-28T10:15:52;96287.81;;;2.17;71.56
72395;BME280;60384;48.152;11.614;2023-02-28T10:18:59;96290.28;;;2.50;70.73
72395;BME280;60384;48.152;11.614;2023-02-28T10:22:10;96298.38;;;2.43;70.75
72395;BME280;60384;48.152;11.614;2023-02-28T10:25:18;96294.59;;;2.34;71.44
72395;BME280;60384;48.152;11.614;2023-02-28T10:28:21;96292.78;;;2.40;71.56
72395;BME280;60384;48.152;11.614;2023-02-28T10:31:24;96294.50;;;2.83;70.92
72395;BME280;60384;48.152;11.614;2023-02-28T10:34:26;96295.00;;;3.12;70.15
72395;BME280;60384;48.152;11.614;2023-02-28T10:37:28;96290.41;;;3.02;70.37
72395;BME280;60384;48.152;11.614;2023-02-28T10:40:34;96294.66;;;3.03;70.85
72395;BME280;60384;48.152;11.614;2023-02-28T10:43:38;96307.44;;;3.21;70.89
72395;BME280;60384;48.152;11.614;2023-02-28T10:46:42;96313.72;;;3.47;69.88
72395;BME280;60384;48.152;11.614;2023-02-28T10:49:47;96305.44;;;3.39;70.24
72395;BME280;60384;48.152;11.614;2023-02-28T10:52:50;96301.34;;;3.58;70.24
72395;BME280;60384;48.152;11.614;2023-02-28T10:56:00;96297.31;;;4.02;70.16
72395;BME280;60384;48.152;11.614;2023-02-28T10:59:19;96310.19;;;5.07;68.12
72395;BME280;60384;48.152;11.614;2023-02-28T11:02:33;96308.25;;;5.68;67.33
72395;BME280;60384;48.152;11.614;2023-02-28T11:05:36;96309.06;;;5.53;67.20
72395;BME280;60384;48.152;11.614;2023-02-28T11:08:45;96314.41;;;5.28;67.60
72395;BME280;60384;48.152;11.614;2023-02-28T11:11:49;96313.06;;;4.90;68.57
72395;BME280;60384;48.152;11.614;2023-02-28T11:14:54;96313.31;;;4.73;69.30
72395;BME280;60384;48.152;11.614;2023-02-28T11:18:00;96309.06;;;4.52;69.65
72395;BME280;60384;48.152;11.614;2023-02-28T11:21:03;96299.00;;;4.39;70.53
72395;BME280;60384;48.152;11.614;2023-02-28T11:24:23;96308.19;;;4.16;71.01
72395;BME280;60384;48.152;11.614;2023-02-28T11:27:47;96312.09;;;3.98;70.64
72395;BME280;60384;48.152;11.614;2023-02-28T11:31:00;96306.72;;;3.78;71.08
72395;BME280;60384;48.152;11.614;2023-02-28T11:34:23;96301.41;;;3.68;71.49
72395;BME280;60384;48.152;11.614;2023-02-28T11:37:27;96298.59;;;3.90;71.28
72395;BME280;60384;48.152;11.614;2023-02-28T11:40:38;96291.56;;;4.26;70.08
72395;BME280;60384;48.152;11.614;2023-02-28T11:43:58;96293.41;;;4.25;70.03
72395;BME280;60384;48.152;11.614;2023-02-28T11:47:06;96283.91;;;4.29;70.50
72395;BME280;60384;48.152;11.614;2023-02-28T11:50:20;96280.09;;;5.87;68.65
72395;BME280;60384;48.152;11.614;2023-02-28T11:53:50;96265.09;;;8.23;64.28
72395;BME280;60384;48.152;11.614;2023-02-28T11:56:57;96260.16;;;9.51;62.30
72395;BME280;60384;48.152;11.614;2023-02-28T12:00:08;96252.97;;;11.45;58.70
72395;BME280;60384;48.152;11.614;2023-02-28T12:03:29;96246.41;;;14.30;54.73
72395;BME280;60384;48.152;11.614;2023-02-28T12:06:40;96242.09;;;16.75;50.85
72395;BME280;60384;48.152;11.614;2023-02-28T12:09:54;96236.44;;;18.96;47.97
72395;BME280;60384;48.152;11.614;2023-02-28T12:13:05;96226.28;;;20.72;45.21
72395;BME280;60384;48.152;11.614;2023-02-28T12:16:23;96217.97;;;21.95;42.08
72395;BME280;60384;48.152;11.614;2023-02-28T12:19:39;96213.00;;;22.59;41.28
72395;BME280;60384;48.152;11.614;2023-02-28T12:22:52;96208.88;;;22.28;41.06
72395;BME280;60384;48.152;11.614;2023-02-28T12:26:07;96215.59;;;21.94;41.46
72395;BME280;60384;48.152;11.614;2023-02-28T12:29:16;96210.88;;;22.31;41.14
72395;BME280;60384;48.152;11.614;2023-02-28T12:32:25;96208.03;;;19.71;45.48
72395;BME280;60384;48.152;11.614;2023-02-28T12:35:32;96208.97;;;18.09;48.60
72395;BME280;60384;48.152;11.614;2023-02-28T12:38:41;96198.75;;;18.88;47.65
72395;BME280;60384;48.152;11.614;2023-02-28T12:41:48;96207.16;;;18.83;48.11
72395;BME280;60384;48.152;11.614;2023-02-28T12:44:55;96206.81;;;17.99;50.06
72395;BME280;60384;48.152;11.614;2023-02-28T12:48:03;96194.88;;;17.68;51.09
72395;BME280;60384;48.152;11.614;2023-02-28T12:51:07;96201.84;;;17.85;51.25
72395;BME280;60384;48.152;11.614;2023-02-28T12:54:18;96199.84;;;17.98;52.08
72395;BME280;60384;48.152;11.614;2023-02-28T12:57:27;96194.00;;;17.80;52.63
72395;BME280;60384;48.152;11.614;2023-02-28T13:00:35;96189.56;;;17.72;53.27
72395;BME280;60384;48.152;11.614;2023-02-28T13:04:04;96200.09;;;17.02;54.33
72395;BME280;60384;48.152;11.614;2023-02-28T13:10:50;96189.50;;;15.93;56.40
72395;BME280;60384;48.152;11.614;2023-02-28T13:13:59;96193.63;;;14.55;59.19
72395;BME280;60384;48.152;11.614;2023-02-28T13:17:09;96206.75;;;13.31;60.61
72395;BME280;60384;48.152;11.614;2023-02-28T13:20:16;96212.03;;;12.58;62.45
72395;BME280;60384;48.152;11.614;2023-02-28T13:23:39;96203.13;;;11.89;63.49
72395;BME280;60384;48.152;11.614;2023-02-28T13:31:04;96207.47;;;11.37;64.95
72395;BME280;60384;48.152;11.614;2023-02-28T13:34:13;96207.00;;;11.74;64.60
72395;BME280;60384;48.152;11.614;2023-02-28T13:37:35;96199.81;;;11.92;64.26
72395;BME280;60384;48.152;11.614;2023-02-28T13:40:38;96208.06;;;12.13;64.27
72395;BME280;60384;48.152;11.614;2023-02-28T13:43:59;96201.59;;;12.22;64.31
72395;BME280;60384;48.152;11.614;2023-02-28T13:47:24;96209.16;;;12.12;63.80
72395;BME280;60384;48.152;11.614;2023-02-28T13:50:32;96206.81;;;11.31;65.65
72395;BME280;60384;48.152;11.614;2023-02-28T13:53:50;96213.22;;;10.77;66.47
72395;BME280;60384;48.152;11.614;2023-02-28T13:57:04;96211.59;;;10.67;66.08
72395;BME280;60384;48.152;11.614;2023-02-28T14:00:20;96203.03;;;10.57;65.79
72395;BME280;60384;48.152;11.614;2023-02-28T14:03:34;96204.19;;;10.64;65.88
72395;BME280;60384;48.152;11.614;2023-02-28T14:06:38;96217.44;;;10.69;65.90
72395;BME280;60384;48.152;11.614;2023-02-28T14:09:46;96205.53;;;10.75;65.92
72395;BME280;60384;48.152;11.614;2023-02-28T14:13:00;96207.88;;;10.77;66.02
72395;BME280;60384;48.152;11.614;2023-02-28T14:16:02;96209.00;;;10.76;65.47
72395;BME280;60384;48.152;11.614;2023-02-28T14:19:11;96207.88;;;10.77;65.99
72395;BME280;60384;48.152;11.614;2023-02-28T14:22:26;96209.75;;;10.76;66.17
72395;BME280;60384;48.152;11.614;2023-02-28T14:25:41;96207.41;;;10.75;66.47
72395;BME280;60384;48.152;11.614;2023-02-28T14:28:58;96203.41;;;10.64;66.12
72395;BME280;60384;48.152;11.614;2023-02-28T14:32:02;96204.72;;;10.53;66.98
72395;BME280;60384;48.152;11.614;2023-02-28T14:35:19;96202.72;;;10.36;67.60
72395;BME280;60384;48.152;11.614;2023-02-28T14:38:25;96209.84;;;10.13;67.42
72395;BME280;60384;48.152;11.614;2023-02-28T14:41:30;96208.91;;;9.82;67.27
72395;BME280;60384;48.152;11.614;2023-02-28T14:44:36;96210.78;;;9.54;68.05
72395;BME280;60384;48.152;11.614;2023-02-28T14:47:38;96200.41;;;9.39;68.11
72395;BME280;60384;48.152;11.614;2023-02-28T14:50:48;96201.28;;;9.34;68.14
72395;BME280;60384;48.152;11.614;2023-02-28T14:53:55;96206.69;;;9.16;68.29
72395;BME280;60384;48.152;11.614;2023-02-28T14:56:57;96208.63;;;8.96;68.39
72395;BME280;60384;48.152;11.614;2023-02-28T15:00:01;96207.88;;;8.77;68.59
72395;BME280;60384;48.152;11.614;2023-02-28T15:03:18;96206.06;;;8.59;69.23
72395;BME280;60384;48.152;11.614;2023-02-28T15:06:22;96200.22;;;8.38;69.53
72395;BME280;60384;48.152;11.614;2023-02-28T15:09:25;96199.41;;;8.19;69.40
72395;BME280;60384;48.152;11.614;2023-02-28T15:12:27;96203.94;;;8.00;69.97
72395;BME280;60384;48.152;11.614;2023-02-28T15:15:42;96201.81;;;7.78;69.67
72395;BME280;60384;48.152;11.614;2023-02-28T15:18:47;96204.38;;;7.64;70.28
72395;BME280;60384;48.152;11.614;2023-02-28T15:21:54;96203.22;;;7.52;69.66
72395;BME280;60384;48.152;11.614;2023-02-28T15:24:57;96208.69;;;7.36;70.44
72395;BME280;60384;48.152;11.614;2023-02-28T15:28:00;96200.31;;;7.24;70.99
72395;BME280;60384;48.152;11.614;2023-02-28T15:31:03;96206.50;;;7.15;71.13
72395;BME280;60384;48.152;11.614;2023-02-28T15:34:22;96206.03;;;7.07;71.22
72395;BME280;60384;48.152;11.614;2023-02-28T15:37:28;96213.59;;;6.95;71.03
72395;BME280;60384;48.152;11.614;2023-02-28T15:40:36;96204.97;;;6.80;71.31
72395;BME280;60384;48.152;11.614;2023-02-28T15:43:38;96222.59;;;6.71;70.61
72395;BME280;60384;48.152;11.614;2023-02-28T15:46:43;96216.78;;;6.63;70.71
72395;BME280;60384;48.152;11.614;2023-02-28T15:49:47;96219.50;;;6.58;71.71
72395;BME280;60384;48.152;11.614;2023-02-28T15:52:51;96224.84;;;6.53;72.10
72395;BME280;60384;48.152;11.614;2023-02-28T15:56:00;96220.38;;;6.49;72.10
72395;BME280;60384;48.152;11.614;2023-02-28T15:59:05;96233.94;;;6.42;71.26
72395;BME280;60384;48.152;11.614;2023-02-28T16:02:16;96230.81;;;6.35;71.45
72395;BME280;60384;48.152;11.614;2023-02-28T16:05:27;96227.16;;;6.26;71.45
72395;BME280;60384;48.152;11.614;2023-02-28T16:08:33;96225.88;;;6.18;71.84
72395;BME280;60384;48.152;11.614;2023-02-28T16:11:38;96218.47;;;6.10;71.49
72395;BME280;60384;48.152;11.614;2023-02-28T16:14:41;96224.91;;;5.99;72.13
72395;BME280;60384;48.152;11.614;2023-02-28T16:17:45;96220.97;;;5.92;72.02
72395;BME280;60384;48.152;11.614;2023-02-28T16:20:47;96219.38;;;5.86;71.81
72395;BME280;60384;48.152;11.614;2023-02-28T16:23:50;96227.63;;;5.79;72.20
72395;BME280;60384;48.152;11.614;2023-02-28T16:26:53;96221.28;;;5.70;72.14
72395;BME280;60384;48.152;11.614;2023-02-28T16:29:57;96225.81;;;5.64;72.39
72395;BME280;60384;48.152;11.614;2023-02-28T16:32:59;96223.75;;;5.56;72.55